Time;durP1;ratioP1;P1;durP2;ratioP2;P2;SDS_P1;SDS_P2;PMS_P1;PMS_P2;Temp;Humidity;BMP_temperature;BMP_pressure;BME280_temperature;BME280_humidity;BME280_pressure;Samples;Min_cycle;Max_cycle;Signal;HPM_P1;HPM_P2
2021/05/18 00:01:43;;;;;;;6.82;3.05;;;9.60;99.90;;;;;;10333221;28;20048;-49
2021/05/18 00:06:46;;;;;;;9.73;3.53;;;9.60;99.90;;;;;;10335138;28;20376;-49
2021/05/18 00:11:47;;;;;;;5.13;2.05;;;9.50;99.90;;;;;;10332813;28;20046;-49
2021/05/18 00:16:49;;;;;;;5.05;1.95;;;9.60;99.90;;;;;;10328207;28;20050;-49
2021/05/18 00:21:50;;;;;;;12.35;3.55;;;9.50;99.90;;;;;;10333798;28;20053;-49
2021/05/18 00:26:51;;;;;;;7.45;2.65;;;9.60;99.90;;;;;;10374603;28;20087;-49
2021/05/18 00:31:52;;;;;;;11.55;3.08;;;9.60;99.90;;;;;;10377758;28;20517;-49
2021/05/18 00:36:53;;;;;;;6.85;3.47;;;9.60;99.90;;;;;;10374007;28;20041;-49
2021/05/18 00:41:54;;;;;;;7.75;3.30;;;9.60;99.90;;;;;;10375456;28;20045;-49
2021/05/18 00:46:54;;;;;;;15.57;5.03;;;9.60;99.90;;;;;;10355628;28;20048;-49
2021/05/18 00:51:55;;;;;;;9.10;2.83;;;9.70;99.90;;;;;;10382172;28;20057;-49
2021/05/18 01:02:15;;;;;;;8.50;3.47;;;9.70;99.90;;;;;;10374814;28;20064;-49
2021/05/18 01:07:16;;;;;;;8.05;4.05;;;9.70;99.90;;;;;;10374147;28;21003;-49
2021/05/18 01:12:17;;;;;;;7.63;2.95;;;9.70;99.90;;;;;;10347428;28;20037;-49
2021/05/18 01:17:18;;;;;;;10.15;2.88;;;9.70;99.90;;;;;;10373567;28;20073;-49
2021/05/18 01:22:19;;;;;;;9.50;3.13;;;9.80;99.90;;;;;;10372728;28;20088;-49
2021/05/18 01:27:20;;;;;;;8.77;3.65;;;9.90;99.90;;;;;;10377134;28;20049;-49
2021/05/18 01:32:24;;;;;;;7.53;4.18;;;9.90;99.90;;;;;;10366514;28;20045;-50
2021/05/18 01:37:24;;;;;;;9.90;4.03;;;9.90;99.90;;;;;;10370754;28;20492;-49
2021/05/18 01:47:56;;;;;;;7.70;3.88;;;10.10;99.90;;;;;;10371013;28;20041;-50
2021/05/18 01:52:57;;;;;;;7.82;2.92;;;10.10;99.90;;;;;;10371714;28;20068;-50
2021/05/18 01:57:58;;;;;;;11.27;3.05;;;10.10;99.90;;;;;;10373929;28;20033;-50
2021/05/18 02:03:00;;;;;;;8.30;3.15;;;10.00;99.90;;;;;;10370074;28;20132;-50
2021/05/18 02:08:02;;;;;;;7.65;3.38;;;10.00;99.90;;;;;;10370896;28;20508;-50
2021/05/18 02:13:03;;;;;;;7.97;2.75;;;10.10;99.90;;;;;;10372306;28;20397;-49
2021/05/18 02:18:18;;;;;;;6.25;3.55;;;10.10;99.90;;;;;;10370510;28;20445;-50
2021/05/18 02:28:40;;;;;;;6.50;3.05;;;10.10;99.90;;;;;;10373990;28;20049;-50
2021/05/18 02:33:48;;;;;;;8.23;3.08;;;10.10;99.90;;;;;;10366747;28;20053;-50
2021/05/18 02:38:49;;;;;;;6.18;2.85;;;10.20;99.90;;;;;;10368765;28;20495;-49
2021/05/18 02:43:59;;;;;;;10.60;2.97;;;10.20;99.90;;;;;;10369931;28;20049;-50
2021/05/18 02:49:14;;;;;;;9.00;4.28;;;10.20;99.90;;;;;;10372930;28;20042;-49
2021/05/18 02:54:21;;;;;;;11.82;3.50;;;10.10;99.90;;;;;;10367792;28;20037;-50
2021/05/18 02:59:22;;;;;;;9.02;3.42;;;10.20;99.90;;;;;;10370591;28;20057;-50
2021/05/18 03:04:22;;;;;;;9.98;3.45;;;10.20;99.90;;;;;;10368767;28;20045;-50
2021/05/18 03:09:24;;;;;;;6.93;3.67;;;10.20;99.90;;;;;;10368118;28;20057;-50
2021/05/18 03:14:25;;;;;;;6.30;3.58;;;10.30;99.90;;;;;;10367140;28;20623;-50
2021/05/18 03:19:26;;;;;;;9.20;3.08;;;10.30;99.90;;;;;;10373531;28;20042;-50
2021/05/18 03:24:26;;;;;;;7.60;3.13;;;10.20;99.90;;;;;;10367204;28;20507;-50
2021/05/18 03:29:32;;;;;;;11.90;3.10;;;10.30;99.90;;;;;;10366915;28;20119;-50
2021/05/18 03:34:36;;;;;;;6.82;3.95;;;10.40;99.90;;;;;;10367486;28;20607;-50
2021/05/18 03:39:38;;;;;;;9.95;3.67;;;10.30;99.90;;;;;;10370245;28;20034;-49
2021/05/18 05:19:20;;;;;;;13.55;5.72;;;10.80;99.90;;;;;;10254622;28;20068;-49
2021/05/18 05:24:21;;;;;;;10.65;4.15;;;11.00;99.90;;;;;;10370822;28;20062;-50
2021/05/18 05:29:22;;;;;;;13.48;4.53;;;11.00;99.90;;;;;;10375027;28;20119;-50
2021/05/18 05:34:23;;;;;;;10.80;4.30;;;11.10;99.90;;;;;;10371964;28;20556;-50
2021/05/18 05:39:24;;;;;;;13.57;4.78;;;11.10;99.90;;;;;;10375244;28;20042;-50
2021/05/18 05:44:24;;;;;;;11.55;4.70;;;11.10;99.90;;;;;;10367606;28;20049;-50
2021/05/18 05:49:26;;;;;;;8.70;4.10;;;11.20;99.90;;;;;;10316344;28;20052;-49
2021/05/18 05:54:26;;;;;;;10.52;4.32;;;11.20;99.90;;;;;;10369552;28;20073;-50
2021/05/18 05:59:27;;;;;;;9.48;4.40;;;11.30;99.90;;;;;;10371440;28;20038;-50
2021/05/18 06:04:29;;;;;;;8.90;4.40;;;11.40;99.90;;;;;;10429386;23;20136;-93
2021/05/18 06:09:35;;;;;;;7.38;3.53;;;11.50;99.90;;;;;;10290265;28;20209;-94
2021/05/18 06:41:18;;;;;;;9.18;3.08;;;12.10;99.90;;;;;;10410845;28;20451;-84
2021/05/18 06:51:23;;;;;;;7.43;2.85;;;12.50;99.90;;;;;;10382625;28;20392;-84
2021/05/18 06:56:31;;;;;;;6.78;3.17;;;12.60;99.90;;;;;;10401654;28;20733;-83
2021/05/18 07:01:32;;;;;;;9.82;3.35;;;12.80;99.90;;;;;;10393824;28;20058;-84
2021/05/18 07:11:37;;;;;;;5.38;2.10;;;13.10;99.90;;;;;;10400933;28;20048;-84
2021/05/18 07:16:38;;;;;;;6.85;2.45;;;13.10;99.90;;;;;;10369008;28;20403;-84
2021/05/18 07:21:39;;;;;;;4.93;2.17;;;13.10;99.90;;;;;;10382401;28;20187;-83
2021/05/18 07:26:39;;;;;;;7.05;2.75;;;13.10;99.90;;;;;;10378974;28;20083;-83
2021/05/18 07:31:40;;;;;;;4.43;1.67;;;13.30;99.90;;;;;;10353588;28;20119;-83
2021/05/18 07:36:42;;;;;;;7.88;3.63;;;13.20;99.90;;;;;;10344332;28;20038;-83
2021/05/18 07:41:43;;;;;;;13.70;4.13;;;12.90;99.90;;;;;;10373095;28;20496;-83
2021/05/18 07:46:45;;;;;;;7.18;2.35;;;12.80;99.90;;;;;;10357677;28;20049;-82
2021/05/18 08:07:30;;;;;;;8.25;2.88;;;13.30;99.90;;;;;;10368679;28;20046;-82
2021/05/18 08:12:31;;;;;;;6.70;2.58;;;13.60;99.90;;;;;;10382567;28;20038;-83
2021/05/18 08:17:38;;;;;;;8.88;2.72;;;13.60;99.90;;;;;;10371279;28;20037;-82
2021/05/18 09:49:16;;;;;;;5.55;1.13;;;15.30;99.90;;;;;;10388890;28;20042;-83
2021/05/18 10:36:09;;;;;;;2.95;1.00;;;15.80;99.90;;;;;;10367152;28;20064;-83
2021/05/18 10:41:23;;;;;;;2.28;1.10;;;16.40;99.90;;;;;;10366226;28;20045;-85
2021/05/18 10:46:29;;;;;;;2.28;1.08;;;16.30;99.90;;;;;;10400936;28;20096;-85
2021/05/18 10:51:33;;;;;;;2.58;0.73;;;16.50;99.90;;;;;;10389183;28;20148;-85
2021/05/18 10:56:54;;;;;;;2.13;1.08;;;17.20;99.90;;;;;;10359123;28;20047;-85
2021/05/18 11:02:07;;;;;;;6.25;1.13;;;17.00;99.90;;;;;;10356781;28;20045;-84
2021/05/18 11:07:09;;;;;;;3.20;1.10;;;17.50;99.90;;;;;;10375325;28;20028;-84
2021/05/18 11:12:13;;;;;;;1.65;0.70;;;17.20;99.90;;;;;;10339146;28;20052;-82
2021/05/18 11:17:21;;;;;;;1.75;0.75;;;18.00;99.90;;;;;;10355369;28;21587;-83
2021/05/18 11:27:41;;;;;;;3.67;0.50;;;18.70;99.90;;;;;;10363759;28;20033;-82
2021/05/18 11:32:55;;;;;;;3.65;0.90;;;19.10;99.90;;;;;;10373294;28;20240;-81
2021/05/18 11:38:25;;;;;;;2.38;0.95;;;19.00;99.90;;;;;;10380868;28;20030;-81
2021/05/18 11:43:38;;;;;;;2.05;0.80;;;18.70;99.90;;;;;;10404285;28;20046;-81
2021/05/18 11:49:06;;;;;;;1.15;0.40;;;18.60;99.90;;;;;;10387964;28;20037;-81
2021/05/18 11:54:08;;;;;;;2.97;1.23;;;18.70;99.90;;;;;;10404990;28;20045;-80
2021/05/18 11:59:09;;;;;;;1.55;0.70;;;18.20;99.90;;;;;;10363274;28;20111;-83
2021/05/18 12:04:12;;;;;;;3.40;0.80;;;17.40;99.90;;;;;;10366318;28;20040;-82
2021/05/18 12:09:15;;;;;;;2.95;0.90;;;17.80;99.90;;;;;;10380574;28;20042;-82
2021/05/18 12:14:16;;;;;;;3.53;0.80;;;18.20;99.90;;;;;;10366171;28;20120;-82
2021/05/18 12:19:18;;;;;;;2.33;1.08;;;19.00;99.90;;;;;;10370724;28;20064;-82
2021/05/18 12:24:26;;;;;;;2.22;1.15;;;18.70;99.90;;;;;;10358501;28;20053;-81
2021/05/18 12:29:45;;;;;;;1.60;0.70;;;18.90;99.90;;;;;;10399892;28;20030;-80
2021/05/18 12:34:46;;;;;;;;;;;19.30;99.90;;;;;;10386493;28;20033;-82
2021/05/18 12:39:47;;;;;;;1.75;0.80;;;20.00;99.90;;;;;;10376750;28;19916;-82
2021/05/18 12:45:09;;;;;;;1.88;0.60;;;20.00;99.90;;;;;;10377471;28;20046;-81
2021/05/18 12:50:12;;;;;;;2.40;0.85;;;20.70;99.90;;;;;;10350995;28;20041;-81
2021/05/18 12:55:23;;;;;;;0.55;0.20;;;20.80;98.40;;;;;;10384784;28;20040;-81
2021/05/18 13:00:34;;;;;;;0.52;0.20;;;20.80;98.80;;;;;;10394811;28;20095;-83
2021/05/18 13:05:36;;;;;;;1.08;0.40;;;21.10;96.10;;;;;;10401133;28;20094;-81
2021/05/18 13:12:11;;;;;;;1.33;0.55;;;21.10;97.00;;;;;;10351304;28;20042;-80
2021/05/18 13:16:24;;;;;;;2.05;0.60;;;20.10;98.40;;;;;;10392235;28;20048;-80
2021/05/18 13:21:59;;;;;;;0.47;0.20;;;19.70;99.90;;;;;;10368728;28;20052;-81
2021/05/18 13:27:00;;;;;;;0.80;0.30;;;19.20;99.90;;;;;;10384116;28;20066;-82
2021/05/18 13:32:00;;;;;;;0.50;0.17;;;19.90;98.80;;;;;;10368372;28;20404;-81
2021/05/18 13:37:01;;;;;;;1.00;0.60;;;20.10;98.20;;;;;;10348527;28;20096;-81
2021/05/18 13:42:02;;;;;;;1.27;0.20;;;19.70;98.60;;;;;;10347254;28;20519;-82
2021/05/18 13:47:03;;;;;;;1.13;0.28;;;19.20;99.90;;;;;;10367840;28;20603;-82
2021/05/18 13:52:04;;;;;;;1.00;0.30;;;19.10;99.90;;;;;;10348675;28;20049;-82
2021/05/18 13:57:06;;;;;;;0.73;0.20;;;19.10;99.90;;;;;;10381621;28;20610;-82
2021/05/18 14:02:07;;;;;;;0.25;0.20;;;19.10;99.90;;;;;;10375651;28;20041;-85
2021/05/18 14:12:59;;;;;;;1.48;0.73;;;18.40;99.90;;;;;;10306621;28;20037;-85
2021/05/18 14:18:00;;;;;;;1.58;0.50;;;18.00;99.90;;;;;;10362091;28;20534;-85
2021/05/18 14:23:01;;;;;;;1.30;0.63;;;17.70;99.90;;;;;;10378495;28;20440;-84
2021/05/18 14:28:03;;;;;;;1.50;0.40;;;17.30;99.90;;;;;;10365531;28;20481;-85
2021/05/18 14:33:04;;;;;;;1.77;0.38;;;17.00;99.90;;;;;;10376230;28;20026;-85
2021/05/18 14:38:15;;;;;;;6.22;0.65;;;16.70;99.90;;;;;;10367427;28;20057;-83
2021/05/18 14:54:09;;;;;;;1.45;0.88;;;16.30;99.90;;;;;;10397003;28;20041;-84
2021/05/18 14:59:09;;;;;;;0.70;0.40;;;16.40;99.90;;;;;;10357268;28;20029;-83
2021/05/18 15:04:10;;;;;;;0.68;0.30;;;16.50;99.90;;;;;;10362427;28;20076;-83
2021/05/18 15:09:11;;;;;;;0.68;0.30;;;16.50;99.90;;;;;;10379774;28;20038;-83
2021/05/18 15:14:13;;;;;;;0.88;0.38;;;16.70;99.90;;;;;;10346220;28;20038;-83
2021/05/18 15:19:17;;;;;;;0.80;0.40;;;16.60;99.90;;;;;;10358124;28;20132;-85
2021/05/18 15:24:18;;;;;;;0.68;0.20;;;16.70;99.90;;;;;;10340245;28;20078;-84
2021/05/18 15:29:21;;;;;;;0.68;0.13;;;16.70;99.90;;;;;;10364722;28;20121;-85
2021/05/18 15:34:22;;;;;;;10.95;0.30;;;16.50;99.90;;;;;;10365806;28;20052;-84
2021/05/18 15:39:27;;;;;;;1.58;0.47;;;16.50;99.90;;;;;;10378429;28;20041;-85
2021/05/18 15:44:28;;;;;;;1.35;0.30;;;16.40;99.90;;;;;;10358228;28;20041;-86
2021/05/18 15:49:29;;;;;;;0.30;0.17;;;16.10;99.90;;;;;;10358480;23;20061;-44
2021/05/18 16:17:08;;;;;;;0.40;0.10;;;16.10;99.90;;;;;;10251828;23;20449;-93
2021/05/18 16:22:18;;;;;;;0.80;0.20;;;16.00;99.90;;;;;;10048513;29;20044;-94
2021/05/18 16:27:24;;;;;;;0.30;0.10;;;15.80;99.90;;;;;;10080304;29;20041;-94
2021/05/18 16:32:36;;;;;;;;;;;15.70;99.90;;;;;;10086451;29;20394;-94
2021/05/18 16:37:37;;;;;;;1.50;0.57;;;15.80;99.90;;;;;;10086472;29;19912;-94
2021/05/18 16:52:59;;;;;;;1.90;0.20;;;15.50;99.90;;;;;;10239376;23;20072;-93
2021/05/18 16:57:59;;;;;;;0.52;0.20;;;15.40;99.90;;;;;;10059124;24;20049;-93
2021/05/18 17:03:06;;;;;;;0.32;0.10;;;15.30;99.90;;;;;;10005349;29;20068;-93
2021/05/18 17:08:09;;;;;;;4.32;0.70;;;15.30;99.90;;;;;;10006036;29;20093;-93
2021/05/18 17:13:58;;;;;;;3.92;0.43;;;15.20;99.90;;;;;;9998052;29;20113;-94
2021/05/18 17:19:21;;;;;;;0.52;0.13;;;15.10;99.90;;;;;;10055502;29;20220;-45
2021/05/18 17:24:22;;;;;;;1.08;0.35;;;15.00;99.90;;;;;;10052550;29;20660;-45
2021/05/18 17:29:24;;;;;;;1.00;0.52;;;14.90;99.90;;;;;;10051245;29;20057;-45
2021/05/18 17:34:25;;;;;;;1.60;0.15;;;14.80;99.90;;;;;;10045998;29;20647;-45
2021/05/18 17:39:25;;;;;;;0.98;0.50;;;14.70;99.90;;;;;;10041513;29;20061;-45
2021/05/18 17:44:28;;;;;;;1.67;0.55;;;14.70;99.90;;;;;;10044171;29;20067;-45
2021/05/18 17:49:29;;;;;;;1.00;0.32;;;14.50;99.90;;;;;;10049140;29;20443;-45
2021/05/18 17:54:30;;;;;;;4.93;1.02;;;14.30;99.90;;;;;;10026541;29;20840;-45
2021/05/18 17:59:30;;;;;;;0.57;0.38;;;14.30;99.90;;;;;;10054986;29;20056;-45
2021/05/18 18:04:35;;;;;;;0.98;0.50;;;14.30;99.90;;;;;;10046367;29;20049;-45
2021/05/18 18:09:42;;;;;;;0.63;0.25;;;14.30;99.90;;;;;;10033839;29;20560;-45
2021/05/18 18:14:42;;;;;;;0.75;0.35;;;14.20;99.90;;;;;;10058650;29;20497;-45
2021/05/18 18:19:43;;;;;;;1.42;0.40;;;14.10;99.90;;;;;;10056654;29;20061;-45
2021/05/18 18:24:44;;;;;;;1.33;0.30;;;13.90;99.90;;;;;;10044154;29;20509;-45
2021/05/18 18:29:45;;;;;;;2.08;0.77;;;13.80;99.90;;;;;;10028118;29;20048;-45
2021/05/18 18:34:45;;;;;;;3.08;1.30;;;13.70;99.90;;;;;;10043855;29;20048;-45
2021/05/18 18:39:46;;;;;;;1.50;0.70;;;13.60;99.90;;;;;;10026632;29;20311;-45
2021/05/18 18:44:47;;;;;;;0.90;0.35;;;13.60;99.90;;;;;;10033024;29;20068;-45
2021/05/18 18:49:50;;;;;;;3.45;0.90;;;13.50;99.90;;;;;;10033386;29;20677;-45
2021/05/18 18:54:51;;;;;;;1.25;0.40;;;13.30;99.90;;;;;;10028565;29;20607;-45
2021/05/18 18:59:51;;;;;;;1.40;0.43;;;13.20;99.90;;;;;;10035335;29;20052;-45
2021/05/18 19:04:54;;;;;;;1.58;0.60;;;13.10;99.90;;;;;;10033216;29;20560;-45
2021/05/18 19:14:56;;;;;;;6.28;0.70;;;13.00;99.90;;;;;;10040519;29;20070;-44
2021/05/18 19:19:57;;;;;;;1.70;0.77;;;13.00;99.90;;;;;;10046617;29;20056;-45
2021/05/18 19:24:58;;;;;;;1.23;0.47;;;12.80;99.90;;;;;;10032372;29;20053;-45
2021/05/18 19:29:59;;;;;;;1.85;0.82;;;12.80;99.90;;;;;;10032369;29;20079;-45
2021/05/18 19:34:59;;;;;;;2.15;0.65;;;12.80;99.90;;;;;;10033701;29;20727;-44
2021/05/18 19:45:38;;;;;;;2.15;0.73;;;12.50;99.90;;;;;;10028049;29;20471;-45
2021/05/18 19:50:39;;;;;;;2.60;0.80;;;12.30;99.90;;;;;;10034692;29;20541;-45
2021/05/18 19:55:45;;;;;;;6.07;1.23;;;12.30;99.90;;;;;;10039905;29;20049;-45
2021/05/18 20:27:29;;;;;;;3.13;1.38;;;11.60;99.90;;;;;;10027869;29;21154;-45
2021/05/18 20:32:30;;;;;;;3.17;1.67;;;11.40;99.90;;;;;;10040087;29;20529;-44
2021/05/18 20:42:51;;;;;;;3.38;1.67;;;11.40;99.90;;;;;;10040591;29;20041;-45
2021/05/18 20:47:52;;;;;;;2.85;1.27;;;11.30;99.90;;;;;;10038660;29;20057;-45
2021/05/18 20:52:53;;;;;;;2.35;1.02;;;11.30;99.90;;;;;;10038225;29;20086;-44
2021/05/18 20:57:54;;;;;;;4.80;1.13;;;11.20;99.90;;;;;;10038643;29;20091;-44
2021/05/18 21:02:54;;;;;;;1.85;0.80;;;11.10;99.90;;;;;;10036057;29;20108;-44
2021/05/18 21:13:28;;;;;;;4.25;1.10;;;10.90;99.90;;;;;;10055100;29;20073;-44
2021/05/18 21:18:29;;;;;;;2.33;1.15;;;10.90;99.90;;;;;;10057443;29;20393;-44
2021/05/18 21:23:30;;;;;;;4.78;1.25;;;10.80;99.90;;;;;;10049404;29;20088;-44
2021/05/18 21:28:31;;;;;;;2.17;0.95;;;10.80;99.90;;;;;;10049182;29;20473;-44
2021/05/18 21:33:32;;;;;;;2.58;0.95;;;10.70;99.90;;;;;;10046625;29;20916;-44
2021/05/18 21:38:32;;;;;;;3.53;1.70;;;10.60;99.90;;;;;;10044865;29;20045;-44
2021/05/18 21:43:34;;;;;;;2.05;1.35;;;10.50;99.90;;;;;;10045151;29;20513;-44
2021/05/18 21:48:35;;;;;;;3.33;1.40;;;10.40;99.90;;;;;;10052408;29;20610;-44
2021/05/18 21:53:36;;;;;;;3.38;1.70;;;10.40;99.90;;;;;;10044952;29;20654;-44
2021/05/18 21:58:37;;;;;;;3.30;1.67;;;10.40;99.90;;;;;;10044124;29;20053;-44
2021/05/18 22:03:38;;;;;;;2.65;1.40;;;10.40;99.90;;;;;;10047675;29;20052;-44
2021/05/18 22:08:43;;;;;;;4.63;1.98;;;10.30;99.90;;;;;;10030344;29;20043;-44
2021/05/18 22:13:59;;;;;;;4.38;1.65;;;10.20;99.90;;;;;;10047722;29;20390;-44
2021/05/18 22:29:40;;;;;;;3.67;1.55;;;10.00;99.90;;;;;;10044300;29;20509;-44
2021/05/18 22:34:41;;;;;;;3.88;1.50;;;10.00;99.90;;;;;;10046272;29;20524;-44
2021/05/18 22:39:42;;;;;;;5.53;1.13;;;9.90;99.90;;;;;;10049230;29;20049;-44
2021/05/18 22:44:43;;;;;;;4.63;1.58;;;9.80;99.90;;;;;;10046045;29;20437;-44
2021/05/18 22:49:44;;;;;;;5.30;1.52;;;9.70;99.90;;;;;;10045465;29;20140;-44
2021/05/18 22:54:45;;;;;;;4.10;1.73;;;9.60;99.90;;;;;;10040146;29;20048;-44
2021/05/18 22:59:46;;;;;;;5.45;1.88;;;9.70;99.90;;;;;;10052583;29;20057;-44
2021/05/18 23:04:47;;;;;;;2.05;1.08;;;9.80;99.90;;;;;;10046394;29;20048;-45
2021/05/18 23:09:48;;;;;;;4.15;2.25;;;9.90;99.90;;;;;;10045163;29;20086;-45
2021/05/18 23:14:51;;;;;;;3.80;1.63;;;10.00;99.90;;;;;;10043234;29;20497;-44
2021/05/18 23:19:52;;;;;;;4.07;1.80;;;10.10;99.90;;;;;;10048276;29;20489;-44
2021/05/18 23:24:52;;;;;;;5.18;1.88;;;10.20;99.90;;;;;;10037861;29;20053;-45
2021/05/18 23:29:53;;;;;;;6.55;2.47;;;10.20;99.90;;;;;;10042354;29;20336;-44
2021/05/18 23:34:54;;;;;;;4.78;1.67;;;10.30;99.90;;;;;;10051222;29;20880;-44
2021/05/18 23:39:55;;;;;;;4.63;2.20;;;10.30;99.90;;;;;;10047789;29;20046;-45
2021/05/18 23:44:56;;;;;;;5.40;2.00;;;10.40;99.90;;;;;;10052016;29;20438;-45
2021/05/18 23:49:56;;;;;;;3.22;1.70;;;10.30;99.90;;;;;;10050534;29;20053;-45
2021/05/18 23:54:57;;;;;;;4.57;1.80;;;10.30;99.90;;;;;;10046876;29;20121;-44
2021/05/18 23:59:58;;;;;;;4.50;1.63;;;10.30;99.90;;;;;;10053270;29;20057;-44
